Time;durP1;ratioP1;P1;durP2;ratioP2;P2;SDS_P1;SDS_P2;PMS_P1;PMS_P2;Temp;Humidity;BMP_temperature;BMP_pressure;BME280_temperature;BME280_humidity;BME280_pressure;Samples;Min_cycle;Max_cycle;Signal;HPM_P1;HPM_P2
2022/04/17 00:00:17;;;;;;;;;;;;;;;;;;5061517;28;19920;-86
2022/04/17 00:02:53;;;;;;;;;;;;;;;;;;5039476;28;19924;-88
2022/04/17 00:05:18;;;;;;;;;;;;;;;;;;5055119;28;19912;-91
2022/04/17 00:07:44;;;;;;;;;;;;;;;;;;5023200;28;19917;-88
2022/04/17 00:10:12;;;;;;;;;;;;;;;;;;5038896;28;20357;-91
2022/04/17 00:12:40;;;;;;;;;;;;;;;;;;5027691;28;20234;-91
2022/04/17 00:15:05;;;;;;;;;;;;;;;;;;5059450;28;19913;-86
2022/04/17 00:17:38;;;;;;;;;;;;;;;;;;5043042;28;19948;-91
2022/04/17 00:20:03;;;;;;;;;;;;;;;;;;5040508;28;19916;-94
2022/04/17 00:22:30;;;;;;;;;;;;;;;;;;5060278;28;20017;-91
2022/04/17 00:25:03;;;;;;;;;;;;;;;;;;5060093;28;19916;-89
2022/04/17 00:27:30;;;;;;;;;;;;;;;;;;5038952;28;20595;-89
2022/04/17 00:29:58;;;;;;;;;;;;;;;;;;5036752;28;20013;-88
2022/04/17 00:32:31;;;;;;;;;;;;;;;;;;5049540;28;19921;-87
2022/04/17 00:34:57;;;;;;;;;;;;;;;;;;5040543;28;19920;-89
2022/04/17 00:37:24;;;;;;;;;;;;;;;;;;5059431;28;20047;-91
2022/04/17 00:39:56;;;;;;;;;;;;;;;;;;5054795;28;19917;-90
2022/04/17 00:45:29;;;;;;;;;;;;;;;;;;5055810;28;19913;-91
2022/04/17 00:47:56;;;;;;;;;;;;;;;;;;5055514;28;20023;-86
2022/04/17 00:50:21;;;;;;;;;;;;;;;;;;5034070;28;19952;-88
2022/04/17 00:53:04;;;;;;;;;;;;;;;;;;5025666;28;19936;-89
2022/04/17 00:55:33;;;;;;;;;;;;;;;;;;5044425;28;19916;-91
2022/04/17 00:58:21;;;;;;;;;;;;;;;;;;5011161;28;19917;-92
2022/04/17 01:00:54;;;;;;;;;;;;;;;;;;5011150;28;19922;-89
2022/04/17 01:03:28;;;;;;;;;;;;;;;;;;5023539;28;20579;-87
2022/04/17 01:06:16;;;;;;;;;;;;;;;;;;4997331;28;19914;-89
2022/04/17 01:09:02;;;;;;;;;;;;;;;;;;5027022;28;19962;-90
2022/04/17 01:11:28;;;;;;;;;;;;;;;;;;4998944;28;19979;-87
2022/04/17 01:13:53;;;;;;;;;;;;;;;;;;4996257;28;20316;-89
2022/04/17 01:16:23;;;;;;;;;;;;;;;;;;5012224;28;19920;-88
2022/04/17 01:18:48;;;;;;;;;;;;;;;;;;5011924;28;20011;-86
2022/04/17 01:21:14;;;;;;;;;;;;;;;;;;5004387;28;19941;-91
2022/04/17 01:29:31;;;;;;;;;;;;;;;;;;5029262;28;19986;-89
2022/04/17 01:32:28;;;;;;;;;;;;;;;;;;5023158;28;19940;-90
2022/04/17 01:35:18;;;;;;;;;;;;;;;;;;5038545;28;20248;-89
2022/04/17 01:37:50;;;;;;;;;;;;;;;;;;5032677;28;19913;-91
2022/04/17 01:40:33;;;;;;;;;;;;;;;;;;5009242;28;19933;-88
2022/04/17 01:43:02;;;;;;;;;;;;;;;;;;5013093;28;19943;-93
2022/04/17 01:45:31;;;;;;;;;;;;;;;;;;5032978;28;20016;-88
2022/04/17 01:47:59;;;;;;;;;;;;;;;;;;5017950;28;19916;-92
2022/04/17 01:50:27;;;;;;;;;;;;;;;;;;5031863;28;19913;-88
2022/04/17 01:53:02;;;;;;;;;;;;;;;;;;5027655;28;21962;-91
2022/04/17 01:55:28;;;;;;;;;;;;;;;;;;4987893;28;19948;-88
2022/04/17 01:58:13;;;;;;;;;;;;;;;;;;5021957;28;19982;-86
2022/04/17 02:00:47;;;;;;;;;;;;;;;;;;5013973;28;19921;-86
2022/04/17 02:03:30;;;;;;;;;;;;;;;;;;5041836;28;19921;-88
2022/04/17 02:06:05;;;;;;;;;;;;;;;;;;5044698;28;19910;-88
2022/04/17 02:08:31;;;;;;;;;;;;;;;;;;5033925;28;19924;-88
2022/04/17 02:10:56;;;;;;;;;;;;;;;;;;5053024;28;19921;-86
2022/04/17 02:13:24;;;;;;;;;;;;;;;;;;5069046;28;19905;-90
2022/04/17 02:15:49;;;;;;;;;;;;;;;;;;5053585;28;19978;-87
2022/04/17 02:18:16;;;;;;;;;;;;;;;;;;5039991;28;19917;-88
2022/04/17 02:20:51;;;;;;;;;;;;;;;;;;5071506;28;19977;-86
2022/04/17 02:23:19;;;;;;;;;;;;;;;;;;5035783;28;19921;-85
2022/04/17 02:26:08;;;;;;;;;;;;;;;;;;;;;
2022/04/17 02:28:35;;;;;;;;;;;;;;;;;;5067547;28;19916;-89
2022/04/17 02:31:04;;;;;;;;;;;;;;;;;;5070992;28;19920;-87
2022/04/17 02:33:32;;;;;;;;;;;;;;;;;;5057206;28;19924;-86
2022/04/17 02:35:57;;;;;;;;;;;;;;;;;;5051983;28;19909;-87
2022/04/17 02:38:24;;;;;;;;;;;;;;;;;;5072727;28;19978;-85
2022/04/17 02:40:53;;;;;;;;;;;;;;;;;;5071139;28;19968;-87
2022/04/17 02:43:23;;;;;;;;;;;;;;;;;;5072105;28;19916;-89
2022/04/17 02:46:02;;;;;;;;;;;;;;;;;;5063234;28;19928;-89
2022/04/17 02:48:29;;;;;;;;;;;;;;;;;;5069069;28;19912;-87
2022/04/17 02:50:57;;;;;;;;;;;;;;;;;;5074579;28;19988;-87
2022/04/17 02:53:24;;;;;;;;;;;;;;;;;;5055079;28;19917;-88
2022/04/17 02:55:52;;;;;;;;;;;;;;;;;;5073026;28;19897;-87
2022/04/17 02:58:25;;;;;;;;;;;;;;;;;;5074699;28;20048;-88
2022/04/17 03:06:29;;;;;;;;;;;;;;;;;;5047811;28;19912;-88
2022/04/17 03:08:55;;;;;;;;;;;;;;;;;;5044834;28;19937;-88
2022/04/17 03:11:20;;;;;;;;;;;;;;;;;;5064477;28;20000;-87
2022/04/17 03:13:48;;;;;;;;;;;;;;;;;;5067638;28;19916;-87
2022/04/17 03:16:15;;;;;;;;;;;;;;;;;;5050609;28;19963;-86
2022/04/17 03:18:41;;;;;;;;;;;;;;;;;;5064393;28;19917;-88
2022/04/17 03:21:07;;;;;;;;;;;;;;;;;;5062246;28;19924;-87
2022/04/17 03:23:36;;;;;;;;;;;;;;;;;;5064569;28;19913;-89
2022/04/17 03:26:01;;;;;;;;;;;;;;;;;;5061304;28;19990;-86
2022/04/17 03:28:27;;;;;;;;;;;;;;;;;;5038947;28;19912;-89
2022/04/17 03:31:20;;;;;;;;;;;;;;;;;;5025327;28;19923;-91
2022/04/17 03:33:50;;;;;;;;;;;;;;;;;;5054567;28;19917;-92
2022/04/17 03:36:23;;;;;;;;;;;;;;;;;;5055006;28;19913;-90
2022/04/17 03:38:50;;;;;;;;;;;;;;;;;;5038969;28;19985;-91
2022/04/17 03:41:26;;;;;;;;;;;;;;;;;;5055935;28;21826;-89
2022/04/17 03:43:53;;;;;;;;;;;;;;;;;;5056479;28;19966;-89
2022/04/17 03:46:21;;;;;;;;;;;;;;;;;;5038681;28;20009;-89
2022/04/17 03:49:07;;;;;;;;;;;;;;;;;;5034557;28;19913;-90
2022/04/17 03:51:34;;;;;;;;;;;;;;;;;;5037661;28;19916;-90
2022/04/17 03:54:07;;;;;;;;;;;;;;;;;;5052207;28;19923;-89
2022/04/17 03:56:37;;;;;;;;;;;;;;;;;;5053925;28;19917;-89
2022/04/17 03:59:14;;;;;;;;;;;;;;;;;;5037037;28;20004;-90
2022/04/17 04:01:41;;;;;;;;;;;;;;;;;;5036902;28;19948;-91
2022/04/17 04:04:12;;;;;;;;;;;;;;;;;;5036583;28;19953;-88
2022/04/17 04:06:37;;;;;;;;;;;;;;;;;;5038297;28;20328;-91
2022/04/17 04:09:22;;;;;;;;;;;;;;;;;;5055773;28;20003;-88
2022/04/17 04:11:52;;;;;;;;;;;;;;;;;;5023175;28;19920;-90
2022/04/17 04:14:19;;;;;;;;;;;;;;;;;;5022772;28;19913;-90
2022/04/17 04:16:54;;;;;;;;;;;;;;;;;;5042116;28;19924;-88
2022/04/17 04:19:21;;;;;;;;;;;;;;;;;;5040930;28;19931;-88
2022/04/17 04:21:59;;;;;;;;;;;;;;;;;;5060205;28;19976;-88
2022/04/17 04:24:31;;;;;;;;;;;;;;;;;;5064738;28;19913;-88
2022/04/17 04:29:45;;;;;;;;;;;;;;;;;;5058111;28;19993;-89
2022/04/17 04:32:27;;;;;;;;;;;;;;;;;;5058997;28;19916;-91
2022/04/17 04:34:56;;;;;;;;;;;;;;;;;;5060643;28;19944;-90
2022/04/17 04:37:28;;;;;;;;;;;;;;;;;;5006265;28;19917;-89
2022/04/17 04:39:58;;;;;;;;;;;;;;;;;;5038538;28;19964;-89
2022/04/17 04:42:32;;;;;;;;;;;;;;;;;;5040761;28;19931;-91
2022/04/17 04:47:55;;;;;;;;;;;;;;;;;;5058177;28;19970;-92
2022/04/17 04:50:20;;;;;;;;;;;;;;;;;;5042117;28;19913;-91
2022/04/17 04:52:49;;;;;;;;;;;;;;;;;;5058139;28;19974;-88
2022/04/17 04:55:39;;;;;;;;;;;;;;;;;;5020605;28;19913;-89
2022/04/17 04:58:15;;;;;;;;;;;;;;;;;;5043978;28;19976;-89
2022/04/17 05:00:43;;;;;;;;;;;;;;;;;;5023400;28;20338;-88
2022/04/17 05:03:21;;;;;;;;;;;;;;;;;;5005237;28;19913;-86
2022/04/17 05:06:02;;;;;;;;;;;;;;;;;;5000470;28;20019;-90
2022/04/17 05:08:40;;;;;;;;;;;;;;;;;;4997216;28;19932;-88
2022/04/17 05:11:06;;;;;;;;;;;;;;;;;;4987932;28;20323;-90
2022/04/17 05:13:49;;;;;;;;;;;;;;;;;;4986982;28;19930;-90
2022/04/17 05:16:18;;;;;;;;;;;;;;;;;;4988910;28;21097;-90
2022/04/17 05:19:21;;;;;;;;;;;;;;;;;;4994760;28;19932;-87
2022/04/17 05:21:47;;;;;;;;;;;;;;;;;;4972085;28;19921;-90
2022/04/17 05:24:25;;;;;;;;;;;;;;;;;;4954785;28;20017;-88
2022/04/17 05:26:51;;;;;;;;;;;;;;;;;;4958671;28;19930;-87
2022/04/17 05:29:44;;;;;;;;;;;;;;;;;;4997789;28;19973;-88
2022/04/17 05:32:31;;;;;;;;;;;;;;;;;;5008331;28;19934;-89
2022/04/17 05:35:20;;;;;;;;;;;;;;;;;;5005496;28;19936;-91
2022/04/17 05:38:11;;;;;;;;;;;;;;;;;;5009606;28;19913;-89
2022/04/17 05:40:37;;;;;;;;;;;;;;;;;;5028325;28;19927;-90
2022/04/17 05:43:13;;;;;;;;;;;;;;;;;;5023806;28;19936;-90
2022/04/17 05:45:41;;;;;;;;;;;;;;;;;;5024550;28;19984;-89
2022/04/17 05:48:12;;;;;;;;;;;;;;;;;;5036672;28;19913;-89
2022/04/17 05:50:57;;;;;;;;;;;;;;;;;;5054710;28;19925;-94
2022/04/17 05:53:26;;;;;;;;;;;;;;;;;;5021748;28;19913;-90
2022/04/17 05:56:02;;;;;;;;;;;;;;;;;;5019410;28;19979;-91
2022/04/17 05:58:36;;;;;;;;;;;;;;;;;;5051029;28;19917;-89
2022/04/17 06:01:29;;;;;;;;;;;;;;;;;;5035868;28;19916;-89
2022/04/17 06:04:01;;;;;;;;;;;;;;;;;;5036817;28;19945;-86
2022/04/17 06:06:30;;;;;;;;;;;;;;;;;;5014745;28;19917;-91
2022/04/17 06:09:04;;;;;;;;;;;;;;;;;;5028934;28;20002;-90
2022/04/17 06:11:34;;;;;;;;;;;;;;;;;;5025667;28;19993;-88
2022/04/17 06:14:07;;;;;;;;;;;;;;;;;;5032818;28;19923;-89
2022/04/17 06:16:33;;;;;;;;;;;;;;;;;;5038361;28;19917;-87
2022/04/17 06:19:05;;;;;;;;;;;;;;;;;;5050684;28;19996;-89
2022/04/17 06:21:32;;;;;;;;;;;;;;;;;;5013857;28;20211;-90
2022/04/17 06:23:57;;;;;;;;;;;;;;;;;;5023668;28;19917;-88
2022/04/17 06:26:32;;;;;;;;;;;;;;;;;;5050479;28;19944;-90
2022/04/17 06:29:03;;;;;;;;;;;;;;;;;;5047851;28;20250;-88
2022/04/17 06:31:45;;;;;;;;;;;;;;;;;;5041380;28;20002;-89
2022/04/17 06:34:32;;;;;;;;;;;;;;;;;;5070930;28;19922;-88
2022/04/17 06:36:59;;;;;;;;;;;;;;;;;;5072527;28;19939;-89
2022/04/17 06:39:31;;;;;;;;;;;;;;;;;;5052667;28;19975;-89
2022/04/17 06:41:58;;;;;;;;;;;;;;;;;;5051689;28;19928;-90
2022/04/17 06:44:25;;;;;;;;;;;;;;;;;;5059216;28;19991;-88
2022/04/17 06:46:59;;;;;;;;;;;;;;;;;;5054570;28;19920;-88
2022/04/17 06:49:42;;;;;;;;;;;;;;;;;;5068905;28;19926;-89
2022/04/17 06:52:10;;;;;;;;;;;;;;;;;;5070656;28;19952;-90
2022/04/17 06:54:45;;;;;;;;;;;;;;;;;;5053490;28;19928;-87
2022/04/17 06:57:20;;;;;;;;;;;;;;;;;;5041046;28;19982;-90
2022/04/17 07:00:02;;;;;;;;;;;;;;;;;;5029079;28;19917;-88
2022/04/17 07:02:30;;;;;;;;;;;;;;;;;;5047214;28;20281;-89
2022/04/17 07:04:56;;;;;;;;;;;;;;;;;;5041962;28;20053;-91
2022/04/17 07:07:23;;;;;;;;;;;;;;;;;;5027488;28;19944;-87
2022/04/17 07:09:57;;;;;;;;;;;;;;;;;;5028673;28;19917;-89
2022/04/17 07:12:37;;;;;;;;;;;;;;;;;;5005250;28;19913;-89
2022/04/17 07:15:09;;;;;;;;;;;;;;;;;;4998557;28;19957;-88
2022/04/17 07:17:35;;;;;;;;;;;;;;;;;;5029927;28;19929;-89
2022/04/17 07:20:08;;;;;;;;;;;;;;;;;;5015664;28;20051;-88
2022/04/17 07:22:36;;;;;;;;;;;;;;;;;;5016302;28;20003;-90
2022/04/17 07:25:01;;;;;;;;;;;;;;;;;;5017085;28;19963;-88
2022/04/17 07:27:56;;;;;;;;;;;;;;;;;;5023786;28;20237;-89
2022/04/17 07:30:36;;;;;;;;;;;;;;;;;;5035586;28;19947;-89
2022/04/17 07:33:03;;;;;;;;;;;;;;;;;;5052807;28;19921;-87
2022/04/17 07:35:35;;;;;;;;;;;;;;;;;;5054062;28;20356;-89
2022/04/17 07:38:29;;;;;;;;;;;;;;;;;;5016785;28;20019;-90
2022/04/17 07:41:03;;;;;;;;;;;;;;;;;;4996344;28;20048;-89
2022/04/17 07:43:47;;;;;;;;;;;;;;;;;;4996080;28;19914;-87
2022/04/17 07:46:21;;;;;;;;;;;;;;;;;;4978648;28;19922;-87
2022/04/17 07:48:49;;;;;;;;;;;;;;;;;;4978572;28;19969;-91
2022/04/17 07:51:23;;;;;;;;;;;;;;;;;;4995777;28;19917;-90
2022/04/17 07:54:13;;;;;;;;;;;;;;;;;;4997582;28;19941;-89
2022/04/17 07:57:04;;;;;;;;;;;;;;;;;;4979327;28;19945;-88
2022/04/17 07:59:35;;;;;;;;;;;;;;;;;;4996679;28;19914;-89
2022/04/17 08:02:21;;;;;;;;;;;;;;;;;;4969335;28;19996;-89
2022/04/17 08:04:56;;;;;;;;;;;;;;;;;;4994125;28;19972;-91
2022/04/17 08:07:47;;;;;;;;;;;;;;;;;;4989644;28;19952;-90
2022/04/17 08:10:13;;;;;;;;;;;;;;;;;;4992225;28;19923;-89
2022/04/17 08:12:43;;;;;;;;;;;;;;;;;;5010551;28;19928;-89
2022/04/17 08:15:11;;;;;;;;;;;;;;;;;;5008705;28;19948;-89
2022/04/17 08:17:44;;;;;;;;;;;;;;;;;;5005356;28;19989;-89
2022/04/17 08:25:50;;;;;;;;;;;;;;;;;;5056070;28;19964;-88
2022/04/17 08:28:22;;;;;;;;;;;;;;;;;;5051732;28;19929;-87
2022/04/17 08:30:49;;;;;;;;;;;;;;;;;;5041147;28;19925;-89
2022/04/17 08:33:20;;;;;;;;;;;;;;;;;;5033872;28;19944;-90
2022/04/17 08:36:12;;;;;;;;;;;;;;;;;;5009056;28;19954;-88
2022/04/17 08:38:57;;;;;;;;;;;;;;;;;;5002818;28;19948;-88
2022/04/17 08:41:47;;;;;;;;;;;;;;;;;;4997512;28;19953;-86
2022/04/17 08:44:13;;;;;;;;;;;;;;;;;;5025446;28;19917;-87
2022/04/17 08:46:47;;;;;;;;;;;;;;;;;;5026003;28;20477;-88
2022/04/17 08:49:14;;;;;;;;;;;;;;;;;;5009495;28;19924;-88
2022/04/17 08:51:49;;;;;;;;;;;;;;;;;;5010236;28;19913;-88
2022/04/17 08:54:24;;;;;;;;;;;;;;;;;;5019787;28;19926;-92
2022/04/17 08:56:54;;;;;;;;;;;;;;;;;;4990047;28;19914;-88
2022/04/17 08:59:23;;;;;;;;;;;;;;;;;;5009502;28;20067;-88
2022/04/17 09:01:57;;;;;;;;;;;;;;;;;;4993157;28;19952;-90
2022/04/17 09:04:24;;;;;;;;;;;;;;;;;;5026126;28;20016;-90
2022/04/17 09:06:52;;;;;;;;;;;;;;;;;;5008933;28;19949;-88
2022/04/17 09:09:18;;;;;;;;;;;;;;;;;;5033695;28;19921;-86
2022/04/17 09:11:45;;;;;;;;;;;;;;;;;;5038238;28;19913;-90
2022/04/17 09:14:10;;;;;;;;;;;;;;;;;;5052571;28;19935;-90
2022/04/17 09:16:38;;;;;;;;;;;;;;;;;;5037756;28;20291;-89
2022/04/17 09:19:05;;;;;;;;;;;;;;;;;;5030485;28;19932;-90
2022/04/17 09:22:01;;;;;;;;;;;;;;;;;;5035427;28;19996;-89
2022/04/17 09:24:30;;;;;;;;;;;;;;;;;;5043893;28;19921;-89
2022/04/17 09:27:05;;;;;;;;;;;;;;;;;;5055444;28;19913;-91
2022/04/17 09:29:32;;;;;;;;;;;;;;;;;;5029932;28;19935;-87
2022/04/17 09:32:07;;;;;;;;;;;;;;;;;;5012658;28;19924;-89
2022/04/17 09:34:33;;;;;;;;;;;;;;;;;;5021571;28;19917;-89
2022/04/17 09:37:06;;;;;;;;;;;;;;;;;;5020576;28;20000;-89
2022/04/17 09:39:35;;;;;;;;;;;;;;;;;;5026470;28;19917;-88
2022/04/17 09:42:03;;;;;;;;;;;;;;;;;;5025180;28;20334;-91
2022/04/17 09:44:35;;;;;;;;;;;;;;;;;;5026951;28;19913;-88
2022/04/17 09:47:01;;;;;;;;;;;;;;;;;;5044432;28;19924;-87
2022/04/17 09:49:30;;;;;;;;;;;;;;;;;;5021860;28;19936;-87
2022/04/17 09:51:58;;;;;;;;;;;;;;;;;;5002176;28;19917;-87
2022/04/17 09:54:29;;;;;;;;;;;;;;;;;;5014834;28;19945;-88
2022/04/17 09:56:56;;;;;;;;;;;;;;;;;;5034184;28;20015;-92
2022/04/17 09:59:22;;;;;;;;;;;;;;;;;;5018641;28;20512;-89
2022/04/17 10:01:57;;;;;;;;;;;;;;;;;;5039967;28;19923;-89
2022/04/17 10:04:45;;;;;;;;;;;;;;;;;;5020958;28;20031;-89
2022/04/17 10:07:16;;;;;;;;;;;;;;;;;;5015328;28;20231;-89
2022/04/17 10:09:42;;;;;;;;;;;;;;;;;;5016575;28;20138;-88
2022/04/17 10:12:14;;;;;;;;;;;;;;;;;;5020278;28;19987;-91
2022/04/17 10:14:48;;;;;;;;;;;;;;;;;;5018628;28;19932;-88
2022/04/17 10:17:13;;;;;;;;;;;;;;;;;;5022203;28;20349;-90
2022/04/17 10:19:50;;;;;;;;;;;;;;;;;;5020842;28;20308;-88
2022/04/17 10:22:29;;;;;;;;;;;;;;;;;;5017862;28;19914;-90
2022/04/17 10:24:54;;;;;;;;;;;;;;;;;;5021818;28;19966;-89
2022/04/17 10:27:44;;;;;;;;;;;;;;;;;;5010109;28;19953;-90
2022/04/17 10:30:32;;;;;;;;;;;;;;;;;;5035728;28;19928;-86
2022/04/17 10:32:58;;;;;;;;;;;;;;;;;;5051539;28;19913;-88
2022/04/17 10:35:33;;;;;;;;;;;;;;;;;;5053284;28;19912;-90
2022/04/17 10:38:17;;;;;;;;;;;;;;;;;;5036095;28;19927;-89
2022/04/17 10:40:42;;;;;;;;;;;;;;;;;;5053855;28;19912;-88
2022/04/17 10:43:22;;;;;;;;;;;;;;;;;;5051609;28;19913;-89
2022/04/17 10:45:57;;;;;;;;;;;;;;;;;;5053074;28;19925;-90
2022/04/17 10:48:26;;;;;;;;;;;;;;;;;;5035471;28;19921;-88
2022/04/17 10:51:30;;;;;;;;;;;;;;;;;;5036880;28;19959;-87
2022/04/17 10:54:04;;;;;;;;;;;;;;;;;;5038707;28;19917;-88
2022/04/17 10:56:40;;;;;;;;;;;;;;;;;;5039088;28;20327;-91
2022/04/17 10:59:06;;;;;;;;;;;;;;;;;;5036617;28;19995;-90
2022/04/17 11:01:32;;;;;;;;;;;;;;;;;;5036559;28;19963;-90
2022/04/17 11:04:01;;;;;;;;;;;;;;;;;;5034978;28;19912;-89
2022/04/17 11:06:52;;;;;;;;;;;;;;;;;;5053591;28;19931;-91
2022/04/17 11:09:26;;;;;;;;;;;;;;;;;;5035712;28;20299;-90
2022/04/17 11:11:53;;;;;;;;;;;;;;;;;;5036701;28;19913;-90
2022/04/17 11:14:28;;;;;;;;;;;;;;;;;;5035527;28;19916;-86
2022/04/17 11:17:12;;;;;;;;;;;;;;;;;;5038297;28;19917;-90
2022/04/17 11:19:37;;;;;;;;;;;;;;;;;;5042291;28;20312;-89
2022/04/17 11:22:12;;;;;;;;;;;;;;;;;;5056425;28;20007;-89
2022/04/17 11:24:38;;;;;;;;;;;;;;;;;;5046329;28;19917;-90
2022/04/17 11:27:11;;;;;;;;;;;;;;;;;;5022752;28;20015;-87
2022/04/17 11:29:37;;;;;;;;;;;;;;;;;;5038251;28;19929;-88
2022/04/17 11:32:02;;;;;;;;;;;;;;;;;;5040024;28;19939;-90
2022/04/17 11:34:38;;;;;;;;;;;;;;;;;;5056542;28;19928;-89
2022/04/17 11:37:06;;;;;;;;;;;;;;;;;;5055938;28;19924;-89
2022/04/17 11:39:43;;;;;;;;;;;;;;;;;;5056621;28;19932;-89
2022/04/17 11:42:23;;;;;;;;;;;;;;;;;;5053113;28;19917;-89
2022/04/17 11:44:58;;;;;;;;;;;;;;;;;;5036817;28;20303;-89
2022/04/17 11:47:24;;;;;;;;;;;;;;;;;;5053923;28;20429;-86
2022/04/17 11:50:17;;;;;;;;;;;;;;;;;;5053374;28;19935;-88
2022/04/17 11:53:08;;;;;;;;;;;;;;;;;;5035855;28;19943;-90
2022/04/17 11:55:44;;;;;;;;;;;;;;;;;;5028161;28;19975;-90
2022/04/17 11:58:09;;;;;;;;;;;;;;;;;;5002855;28;19913;-88
2022/04/17 12:01:05;;;;;;;;;;;;;;;;;;5042218;28;20114;-89
2022/04/17 12:06:19;;;;;;;;;;;;;;;;;;5002483;28;19928;-89
2022/04/17 12:09:07;;;;;;;;;;;;;;;;;;5013495;28;20481;-88
2022/04/17 12:11:34;;;;;;;;;;;;;;;;;;5022422;28;19914;-90
2022/04/17 12:14:17;;;;;;;;;;;;;;;;;;5025971;28;19917;-88
2022/04/17 12:16:43;;;;;;;;;;;;;;;;;;5003562;28;19988;-88
2022/04/17 12:19:20;;;;;;;;;;;;;;;;;;5017226;28;19913;-88
2022/04/17 12:21:55;;;;;;;;;;;;;;;;;;5002579;28;19921;-88
2022/04/17 12:24:25;;;;;;;;;;;;;;;;;;5051596;28;19943;-89
2022/04/17 12:27:02;;;;;;;;;;;;;;;;;;5060757;28;19921;-89
2022/04/17 12:29:27;;;;;;;;;;;;;;;;;;4766104;28;7930195;-86
2022/04/17 12:31:55;;;;;;;;;;;;;;;;;;5061762;28;19919;-87
2022/04/17 12:34:48;;;;;;;;;;;;;;;;;;5027805;28;19925;-89
2022/04/17 12:37:46;;;;;;;;;;;;;;;;;;5013746;28;19964;-87
2022/04/17 12:40:28;;;;;;;;;;;;;;;;;;5010661;28;20000;-87
2022/04/17 12:43:04;;;;;;;;;;;;;;;;;;5031652;28;19936;-87
2022/04/17 12:45:29;;;;;;;;;;;;;;;;;;5010193;28;19925;-89
2022/04/17 12:47:54;;;;;;;;;;;;;;;;;;5021381;28;19980;-88
2022/04/17 12:50:29;;;;;;;;;;;;;;;;;;4966349;29;19922;-89
2022/04/17 12:52:56;;;;;;;;;;;;;;;;;;4965804;28;20530;-88
2022/04/17 12:55:31;;;;;;;;;;;;;;;;;;4964357;29;19938;-88
2022/04/17 12:57:56;;;;;;;;;;;;;;;;;;4962933;28;19914;-89
2022/04/17 13:00:31;;;;;;;;;;;;;;;;;;4962290;28;19914;-90
2022/04/17 13:02:57;;;;;;;;;;;;;;;;;;4958554;29;19915;-90
2022/04/17 13:05:42;;;;;;;;;;;;;;;;;;4954077;28;19914;-89
2022/04/17 13:08:51;;;;;;;;;;;;;;;;;;4985213;28;20041;-88
2022/04/17 13:11:20;;;;;;;;;;;;;;;;;;4985256;28;19918;-89
2022/04/17 13:13:57;;;;;;;;;;;;;;;;;;4987617;28;19918;-91
2022/04/17 13:16:26;;;;;;;;;;;;;;;;;;4995753;28;19937;-88
2022/04/17 13:18:52;;;;;;;;;;;;;;;;;;4961525;28;19914;-91
2022/04/17 13:21:25;;;;;;;;;;;;;;;;;;4987850;28;20221;-91
2022/04/17 13:24:20;;;;;;;;;;;;;;;;;;4984026;28;19921;-89
2022/04/17 13:27:05;;;;;;;;;;;;;;;;;;4993671;28;19918;-91
2022/04/17 13:29:30;;;;;;;;;;;;;;;;;;4993620;28;20502;-87
2022/04/17 13:32:47;;;;;;;;;;;;;;;;;;4968417;28;19925;-89
2022/04/17 13:35:12;;;;;;;;;;;;;;;;;;4966383;28;19922;-88
2022/04/17 13:40:30;;;;;;;;;;;;;;;;;;4966628;28;19914;-87
2022/04/17 13:42:55;;;;;;;;;;;;;;;;;;4969874;28;20560;-89
2022/04/17 13:45:38;;;;;;;;;;;;;;;;;;4969664;28;19922;-89
2022/04/17 13:48:06;;;;;;;;;;;;;;;;;;4969622;28;19918;-89
2022/04/17 13:50:37;;;;;;;;;;;;;;;;;;4947433;28;19941;-91
2022/04/17 13:53:12;;;;;;;;;;;;;;;;;;4965373;28;20006;-90
2022/04/17 13:55:57;;;;;;;;;;;;;;;;;;4966544;28;19953;-87
2022/04/17 13:58:23;;;;;;;;;;;;;;;;;;4950584;28;20010;-89
2022/04/17 14:00:52;;;;;;;;;;;;;;;;;;5002313;28;19947;-88
2022/04/17 14:03:41;;;;;;;;;;;;;;;;;;5015236;28;19924;-89
2022/04/17 14:06:17;;;;;;;;;;;;;;;;;;;;;
2022/04/17 14:08:43;;;;;;;;;;;;;;;;;;5015240;28;19920;-89
2022/04/17 14:11:09;;;;;;;;;;;;;;;;;;5036045;28;19921;-89
2022/04/17 14:13:37;;;;;;;;;;;;;;;;;;5003963;28;19913;-90
2022/04/17 14:16:23;;;;;;;;;;;;;;;;;;5000399;28;19924;-89
2022/04/17 14:18:48;;;;;;;;;;;;;;;;;;4983675;28;19909;-89
2022/04/17 14:21:22;;;;;;;;;;;;;;;;;;4984516;28;19914;-90
2022/04/17 14:24:08;;;;;;;;;;;;;;;;;;5000888;28;19905;-89
2022/04/17 14:26:34;;;;;;;;;;;;;;;;;;5004630;28;19914;-89
2022/04/17 14:29:17;;;;;;;;;;;;;;;;;;4977329;28;20053;-88
2022/04/17 14:31:52;;;;;;;;;;;;;;;;;;4996470;28;19913;-88
2022/04/17 14:34:38;;;;;;;;;;;;;;;;;;4990989;28;20088;-89
2022/04/17 14:37:37;;;;;;;;;;;;;;;;;;5032327;28;20388;-88
2022/04/17 14:40:11;;;;;;;;;;;;;;;;;;5031498;28;19920;-88
2022/04/17 14:43:00;;;;;;;;;;;;;;;;;;5013908;28;19956;-89
2022/04/17 14:45:44;;;;;;;;;;;;;;;;;;5033527;28;19917;-89
2022/04/17 14:48:21;;;;;;;;;;;;;;;;;;5035912;28;19917;-88
2022/04/17 14:50:51;;;;;;;;;;;;;;;;;;5054036;28;20614;-89
2022/04/17 14:53:19;;;;;;;;;;;;;;;;;;5054398;28;19913;-88
2022/04/17 14:55:48;;;;;;;;;;;;;;;;;;5046586;28;19909;-88
2022/04/17 14:58:23;;;;;;;;;;;;;;;;;;5039533;28;19912;-88
2022/04/17 15:01:00;;;;;;;;;;;;;;;;;;5044569;28;20172;-87
2022/04/17 15:03:27;;;;;;;;;;;;;;;;;;5055528;28;19913;-88
2022/04/17 15:06:07;;;;;;;;;;;;;;;;;;5059686;28;19921;-89
2022/04/17 15:08:45;;;;;;;;;;;;;;;;;;5061442;28;19976;-86
2022/04/17 15:11:12;;;;;;;;;;;;;;;;;;5044237;28;19940;-88
2022/04/17 15:13:55;;;;;;;;;;;;;;;;;;5040685;28;19928;-89
2022/04/17 15:16:24;;;;;;;;;;;;;;;;;;5049625;28;19968;-88
2022/04/17 15:18:50;;;;;;;;;;;;;;;;;;5034692;28;20346;-89
2022/04/17 15:21:18;;;;;;;;;;;;;;;;;;5034547;28;20472;-89
2022/04/17 15:23:54;;;;;;;;;;;;;;;;;;5054188;28;19972;-87
2022/04/17 15:29:13;;;;;;;;;;;;;;;;;;5024514;28;19924;-90
2022/04/17 15:34:29;;;;;;;;;;;;;;;;;;5029717;28;19921;-88
2022/04/17 15:40:53;;;;;;;;;;;;;;;;;;;;;
2022/04/17 15:49:35;;;;;;;;;;;;;;;;;;5007552;28;19928;-89
2022/04/17 15:52:02;;;;;;;;;;;;;;;;;;5007976;28;19996;-89
2022/04/17 15:54:28;;;;;;;;;;;;;;;;;;5004257;28;20007;-90
2022/04/17 15:57:00;;;;;;;;;;;;;;;;;;5034761;28;20200;-87
2022/04/17 15:59:30;;;;;;;;;;;;;;;;;;5034406;28;20346;-89
2022/04/17 16:02:06;;;;;;;;;;;;;;;;;;5052692;28;19940;-89
2022/04/17 16:04:32;;;;;;;;;;;;;;;;;;5038924;28;19916;-88
2022/04/17 16:10:07;;;;;;;;;;;;;;;;;;4975641;28;21837;-90
2022/04/17 16:12:36;;;;;;;;;;;;;;;;;;5037603;28;19948;-89
2022/04/17 16:15:04;;;;;;;;;;;;;;;;;;5037023;28;20245;-90
2022/04/17 16:17:31;;;;;;;;;;;;;;;;;;5038765;28;19919;-88
2022/04/17 16:19:58;;;;;;;;;;;;;;;;;;5053295;28;19963;-89
2022/04/17 16:22:29;;;;;;;;;;;;;;;;;;5036038;28;19920;-87
2022/04/17 16:24:57;;;;;;;;;;;;;;;;;;5022306;28;19917;-88
2022/04/17 16:27:35;;;;;;;;;;;;;;;;;;5055534;28;20141;-88
2022/04/17 16:30:21;;;;;;;;;;;;;;;;;;5054623;28;20338;-87
2022/04/17 16:32:46;;;;;;;;;;;;;;;;;;5039343;28;19921;-87
2022/04/17 16:35:15;;;;;;;;;;;;;;;;;;5056000;28;19913;-88
2022/04/17 16:37:41;;;;;;;;;;;;;;;;;;5055410;28;20326;-88
2022/04/17 16:40:06;;;;;;;;;;;;;;;;;;5040057;28;19975;-89
2022/04/17 16:42:41;;;;;;;;;;;;;;;;;;5036793;28;19970;-86
2022/04/17 16:45:06;;;;;;;;;;;;;;;;;;5037148;28;19916;-87
2022/04/17 16:47:32;;;;;;;;;;;;;;;;;;5055126;28;20463;-86
2022/04/17 16:50:00;;;;;;;;;;;;;;;;;;5057771;28;19925;-88
2022/04/17 16:52:26;;;;;;;;;;;;;;;;;;5056385;28;19917;-88
2022/04/17 16:54:53;;;;;;;;;;;;;;;;;;5058915;28;19913;-87
2022/04/17 17:00:12;;;;;;;;;;;;;;;;;;5065781;28;19913;-85
2022/04/17 17:02:37;;;;;;;;;;;;;;;;;;5073172;28;19917;-86
2022/04/17 17:05:05;;;;;;;;;;;;;;;;;;5057416;28;19924;-86
2022/04/17 17:07:50;;;;;;;;;;;;;;;;;;5054078;28;19965;-85
2022/04/17 17:10:16;;;;;;;;;;;;;;;;;;5047001;28;20361;-86
2022/04/17 17:12:41;;;;;;;;;;;;;;;;;;5038983;28;19913;-87
2022/04/17 17:15:12;;;;;;;;;;;;;;;;;;5015692;28;19917;-88
2022/04/17 17:17:38;;;;;;;;;;;;;;;;;;5013179;28;20020;-86
2022/04/17 17:20:06;;;;;;;;;;;;;;;;;;5034890;28;19962;-87
2022/04/17 17:22:32;;;;;;;;;;;;;;;;;;5011952;28;19917;-88
2022/04/17 17:24:58;;;;;;;;;;;;;;;;;;5015279;28;19936;-89
2022/04/17 17:27:23;;;;;;;;;;;;;;;;;;5012796;28;19979;-90
2022/04/17 17:29:50;;;;;;;;;;;;;;;;;;5018837;28;20024;-90
2022/04/17 17:32:19;;;;;;;;;;;;;;;;;;5015898;28;19959;-89
2022/04/17 17:34:44;;;;;;;;;;;;;;;;;;5026621;28;19921;-88
2022/04/17 17:37:12;;;;;;;;;;;;;;;;;;5016681;28;19921;-88
2022/04/17 17:39:37;;;;;;;;;;;;;;;;;;5030170;28;19913;-87
2022/04/17 17:42:05;;;;;;;;;;;;;;;;;;5036361;28;19994;-91
2022/04/17 17:44:33;;;;;;;;;;;;;;;;;;5055618;28;19921;-87
2022/04/17 17:47:04;;;;;;;;;;;;;;;;;;5054959;28;19988;-87
2022/04/17 17:55:34;;;;;;;;;;;;;;;;;;4997495;28;19921;-65
2022/04/17 17:58:09;;;;;;;;;;;;;;;;;;5019893;28;20539;-64
2022/04/17 18:00:35;;;;;;;;;;;;;;;;;;5024033;28;19921;-62
2022/04/17 18:03:01;;;;;;;;;;;;;;;;;;5004067;28;20372;-65
2022/04/17 18:05:31;;;;;;;;;;;;;;;;;;4990950;28;20014;-65
2022/04/17 18:16:12;;;;;;;;;;;;;;;;;;5001609;28;20023;-64
2022/04/17 18:18:40;;;;;;;;;;;;;;;;;;5001849;28;19924;-64
2022/04/17 18:21:05;;;;;;;;;;;;;;;;;;4991165;28;19925;-63
2022/04/17 18:23:31;;;;;;;;;;;;;;;;;;5023177;28;19934;-65
2022/04/17 18:25:57;;;;;;;;;;;;;;;;;;5021433;28;19921;-65
2022/04/17 18:28:25;;;;;;;;;;;;;;;;;;5023473;28;19917;-65
2022/04/17 18:30:50;;;;;;;;;;;;;;;;;;5005007;28;19931;-65
2022/04/17 18:33:15;;;;;;;;;;;;;;;;;;5005226;28;19924;-64